Pagina principale
METAR-TAF:

METAR-TAF

Aeroporti :

Maragheh, Iran

latitudine: 37-20-55N, longitudine: 046-07-35E, altezza: 1340 m

Osservazione

Il bollettino è stato emesso 1 ora e 15 minuti fa, alle 00:00 UTC
Vento 10 kt da est
Temperature 14°C
Umidità 31%
Pressione 1016 hPa
Visibilità 10 km o più
nessuna nube inferiore a 1500 m e nessun cumulonembo

METAR: OITM 310000Z 08010KT CAVOK 14/M03 Q1016

Ora: 05:45 (01:15 UTC)


TAF: mancante

Osservazioni e previsioni meteorologiche di più di 4000 aeroporti (messaggi METAR e TAF).

Le stazioni disponibili sono rappresentate dai dischi gialli e rossi sulla carta.

Puntare il mouse per vedere il nome della stazione.

Clicca sopra per visualizzare le osservazioni e previsioni meteorologiche.

Per cambiare la mappa : fare clic sui pulsanti verdi con una croce nera per ingrandire, il pulsante verde con un trattino per diminuire, o sulla freccia verde per le mappe adiacenti.


METAR-TAF: